sensor_id;sensor_type;location;lat;lon;timestamp;P1;durP1;ratioP1;P2;durP2;ratioP2
7239;SDS011;3661;53.288;10.458;2024-01-11T00:02:29;405.48;;;367.65;;
7239;SDS011;3661;53.288;10.458;2024-01-11T00:05:01;406.10;;;368.15;;
7239;SDS011;3661;53.288;10.458;2024-01-11T00:07:34;411.58;;;373.50;;
7239;SDS011;3661;53.288;10.458;2024-01-11T00:10:06;407.48;;;369.38;;
7239;SDS011;3661;53.288;10.458;2024-01-11T00:12:39;409.20;;;371.27;;
7239;SDS011;3661;53.288;10.458;2024-01-11T00:15:11;416.48;;;378.35;;
7239;SDS011;3661;53.288;10.458;2024-01-11T00:17:45;411.67;;;373.03;;
7239;SDS011;3661;53.288;10.458;2024-01-11T00:20:17;412.73;;;374.07;;
7239;SDS011;3661;53.288;10.458;2024-01-11T00:22:49;409.77;;;371.58;;
7239;SDS011;3661;53.288;10.458;2024-01-11T00:25:21;409.15;;;371.08;;
7239;SDS011;3661;53.288;10.458;2024-01-11T00:27:53;401.63;;;363.88;;
7239;SDS011;3661;53.288;10.458;2024-01-11T00:30:25;411.52;;;373.33;;
7239;SDS011;3661;53.288;10.458;2024-01-11T00:32:59;406.25;;;367.88;;
7239;SDS011;3661;53.288;10.458;2024-01-11T00:35:31;403.50;;;365.45;;
7239;SDS011;3661;53.288;10.458;2024-01-11T00:38:03;396.80;;;358.33;;
7239;SDS011;3661;53.288;10.458;2024-01-11T00:40:35;411.25;;;372.50;;
7239;SDS011;3661;53.288;10.458;2024-01-11T00:43:07;416.73;;;378.83;;
7239;SDS011;3661;53.288;10.458;2024-01-11T00:45:39;399.35;;;361.55;;
7239;SDS011;3661;53.288;10.458;2024-01-11T00:48:12;417.58;;;379.08;;
7239;SDS011;3661;53.288;10.458;2024-01-11T00:50:44;399.67;;;361.80;;
7239;SDS011;3661;53.288;10.458;2024-01-11T00:53:16;407.30;;;369.80;;
7239;SDS011;3661;53.288;10.458;2024-01-11T00:55:48;405.67;;;367.77;;
7239;SDS011;3661;53.288;10.458;2024-01-11T00:58:25;399.40;;;361.20;;
7239;SDS011;3661;53.288;10.458;2024-01-11T01:00:57;414.77;;;375.73;;
7239;SDS011;3661;53.288;10.458;2024-01-11T01:03:30;412.00;;;373.40;;
7239;SDS011;3661;53.288;10.458;2024-01-11T01:06:02;410.07;;;371.63;;
7239;SDS011;3661;53.288;10.458;2024-01-11T01:08:41;408.77;;;370.75;;
7239;SDS011;3661;53.288;10.458;2024-01-11T01:11:13;396.52;;;358.67;;
7239;SDS011;3661;53.288;10.458;2024-01-11T01:13:45;409.93;;;372.07;;
7239;SDS011;3661;53.288;10.458;2024-01-11T01:16:17;404.50;;;366.38;;
7239;SDS011;3661;53.288;10.458;2024-01-11T01:18:50;412.30;;;373.88;;
7239;SDS011;3661;53.288;10.458;2024-01-11T01:21:22;412.92;;;374.40;;
7239;SDS011;3661;53.288;10.458;2024-01-11T01:23:54;411.95;;;373.75;;
7239;SDS011;3661;53.288;10.458;2024-01-11T01:26:26;413.73;;;374.83;;
7239;SDS011;3661;53.288;10.458;2024-01-11T01:28:58;411.05;;;372.92;;
7239;SDS011;3661;53.288;10.458;2024-01-11T01:31:31;396.57;;;358.67;;
7239;SDS011;3661;53.288;10.458;2024-01-11T01:34:08;416.40;;;378.30;;
7239;SDS011;3661;53.288;10.458;2024-01-11T01:36:40;407.63;;;368.95;;
7239;SDS011;3661;53.288;10.458;2024-01-11T01:39:12;408.25;;;370.25;;
7239;SDS011;3661;53.288;10.458;2024-01-11T01:41:45;405.13;;;366.70;;
7239;SDS011;3661;53.288;10.458;2024-01-11T01:44:18;403.50;;;365.40;;
7239;SDS011;3661;53.288;10.458;2024-01-11T01:46:51;406.40;;;367.88;;
7239;SDS011;3661;53.288;10.458;2024-01-11T01:49:24;411.73;;;373.08;;
7239;SDS011;3661;53.288;10.458;2024-01-11T01:51:56;407.98;;;370.05;;
7239;SDS011;3661;53.288;10.458;2024-01-11T01:54:29;409.45;;;371.13;;
7239;SDS011;3661;53.288;10.458;2024-01-11T01:57:03;418.30;;;379.10;;
7239;SDS011;3661;53.288;10.458;2024-01-11T01:59:38;417.67;;;379.80;;
7239;SDS011;3661;53.288;10.458;2024-01-11T02:02:11;413.55;;;375.55;;
7239;SDS011;3661;53.288;10.458;2024-01-11T02:04:45;414.63;;;376.10;;
7239;SDS011;3661;53.288;10.458;2024-01-11T02:07:17;412.67;;;373.50;;
7239;SDS011;3661;53.288;10.458;2024-01-11T02:09:50;409.15;;;370.27;;
7239;SDS011;3661;53.288;10.458;2024-01-11T02:12:23;415.38;;;376.80;;
7239;SDS011;3661;53.288;10.458;2024-01-11T02:14:56;417.95;;;379.35;;
7239;SDS011;3661;53.288;10.458;2024-01-11T02:17:28;411.97;;;373.17;;
7239;SDS011;3661;53.288;10.458;2024-01-11T02:20:02;406.13;;;367.43;;
7239;SDS011;3661;53.288;10.458;2024-01-11T02:22:35;411.23;;;372.58;;
7239;SDS011;3661;53.288;10.458;2024-01-11T02:25:11;416.88;;;378.17;;
7239;SDS011;3661;53.288;10.458;2024-01-11T02:27:46;420.13;;;381.27;;
7239;SDS011;3661;53.288;10.458;2024-01-11T02:30:19;423.10;;;383.70;;
7239;SDS011;3661;53.288;10.458;2024-01-11T02:32:51;412.52;;;374.27;;
7239;SDS011;3661;53.288;10.458;2024-01-11T02:35:29;411.23;;;372.83;;
7239;SDS011;3661;53.288;10.458;2024-01-11T02:38:02;418.83;;;380.08;;
7239;SDS011;3661;53.288;10.458;2024-01-11T02:40:36;412.10;;;373.17;;
7239;SDS011;3661;53.288;10.458;2024-01-11T02:43:10;414.70;;;375.67;;
7239;SDS011;3661;53.288;10.458;2024-01-11T02:45:42;403.57;;;364.57;;
7239;SDS011;3661;53.288;10.458;2024-01-11T02:48:14;413.80;;;374.50;;
7239;SDS011;3661;53.288;10.458;2024-01-11T02:50:47;422.60;;;383.80;;
7239;SDS011;3661;53.288;10.458;2024-01-11T02:53:20;423.10;;;383.70;;
7239;SDS011;3661;53.288;10.458;2024-01-11T02:55:53;415.05;;;376.55;;
7239;SDS011;3661;53.288;10.458;2024-01-11T02:58:25;423.67;;;385.08;;
7239;SDS011;3661;53.288;10.458;2024-01-11T03:00:57;398.87;;;359.80;;
7239;SDS011;3661;53.288;10.458;2024-01-11T03:03:29;407.70;;;369.15;;
7239;SDS011;3661;53.288;10.458;2024-01-11T03:06:01;413.83;;;374.57;;
7239;SDS011;3661;53.288;10.458;2024-01-11T03:08:35;409.30;;;371.25;;
7239;SDS011;3661;53.288;10.458;2024-01-11T03:11:08;406.63;;;367.88;;
7239;SDS011;3661;53.288;10.458;2024-01-11T03:13:41;398.38;;;360.35;;
7239;SDS011;3661;53.288;10.458;2024-01-11T03:16:14;414.75;;;375.27;;
7239;SDS011;3661;53.288;10.458;2024-01-11T03:18:46;417.67;;;378.87;;
7239;SDS011;3661;53.288;10.458;2024-01-11T03:21:18;414.45;;;375.92;;
7239;SDS011;3661;53.288;10.458;2024-01-11T03:23:50;420.77;;;380.90;;
7239;SDS011;3661;53.288;10.458;2024-01-11T03:26:23;408.45;;;370.02;;
7239;SDS011;3661;53.288;10.458;2024-01-11T03:28:55;401.65;;;362.65;;
7239;SDS011;3661;53.288;10.458;2024-01-11T03:31:27;408.27;;;369.73;;
7239;SDS011;3661;53.288;10.458;2024-01-11T03:33:59;410.17;;;371.30;;
7239;SDS011;3661;53.288;10.458;2024-01-11T03:36:31;410.00;;;371.20;;
7239;SDS011;3661;53.288;10.458;2024-01-11T03:39:03;407.88;;;369.85;;
7239;SDS011;3661;53.288;10.458;2024-01-11T03:41:37;405.38;;;367.75;;
7239;SDS011;3661;53.288;10.458;2024-01-11T03:44:14;399.95;;;361.77;;
7239;SDS011;3661;53.288;10.458;2024-01-11T03:46:46;409.98;;;371.10;;
7239;SDS011;3661;53.288;10.458;2024-01-11T03:49:18;412.60;;;373.98;;
7239;SDS011;3661;53.288;10.458;2024-01-11T03:51:50;422.00;;;382.83;;
7239;SDS011;3661;53.288;10.458;2024-01-11T03:54:22;416.67;;;377.88;;
7239;SDS011;3661;53.288;10.458;2024-01-11T03:56:56;410.95;;;372.23;;
7239;SDS011;3661;53.288;10.458;2024-01-11T03:59:28;416.05;;;376.95;;
7239;SDS011;3661;53.288;10.458;2024-01-11T04:02:00;413.65;;;374.80;;
7239;SDS011;3661;53.288;10.458;2024-01-11T04:04:32;407.77;;;368.87;;
7239;SDS011;3661;53.288;10.458;2024-01-11T04:07:04;413.48;;;374.00;;
7239;SDS011;3661;53.288;10.458;2024-01-11T04:09:37;408.88;;;370.27;;
7239;SDS011;3661;53.288;10.458;2024-01-11T04:12:10;420.55;;;380.88;;
7239;SDS011;3661;53.288;10.458;2024-01-11T04:14:42;407.10;;;367.92;;
7239;SDS011;3661;53.288;10.458;2024-01-11T04:17:14;428.88;;;389.30;;
7239;SDS011;3661;53.288;10.458;2024-01-11T04:19:46;423.13;;;383.67;;
7239;SDS011;3661;53.288;10.458;2024-01-11T04:22:18;415.17;;;375.38;;
7239;SDS011;3661;53.288;10.458;2024-01-11T04:24:50;400.15;;;361.05;;
7239;SDS011;3661;53.288;10.458;2024-01-11T04:27:24;407.80;;;369.23;;
7239;SDS011;3661;53.288;10.458;2024-01-11T04:29:56;417.30;;;378.08;;
7239;SDS011;3661;53.288;10.458;2024-01-11T04:32:28;417.02;;;377.42;;
7239;SDS011;3661;53.288;10.458;2024-01-11T04:35:00;409.40;;;370.42;;
7239;SDS011;3661;53.288;10.458;2024-01-11T04:37:32;424.55;;;385.27;;
7239;SDS011;3661;53.288;10.458;2024-01-11T04:40:08;424.83;;;385.02;;
7239;SDS011;3661;53.288;10.458;2024-01-11T04:42:42;424.85;;;385.42;;
7239;SDS011;3661;53.288;10.458;2024-01-11T04:45:14;415.15;;;375.60;;
7239;SDS011;3661;53.288;10.458;2024-01-11T04:47:46;427.98;;;388.33;;
7239;SDS011;3661;53.288;10.458;2024-01-11T04:50:18;419.05;;;379.65;;
7239;SDS011;3661;53.288;10.458;2024-01-11T04:52:50;420.88;;;381.05;;
7239;SDS011;3661;53.288;10.458;2024-01-11T04:55:22;428.37;;;389.40;;
7239;SDS011;3661;53.288;10.458;2024-01-11T04:57:58;409.60;;;370.40;;
7239;SDS011;3661;53.288;10.458;2024-01-11T05:00:30;422.60;;;383.17;;
7239;SDS011;3661;53.288;10.458;2024-01-11T05:03:03;436.08;;;396.27;;
7239;SDS011;3661;53.288;10.458;2024-01-11T05:05:36;430.35;;;390.58;;
7239;SDS011;3661;53.288;10.458;2024-01-11T05:08:08;428.55;;;388.85;;
7239;SDS011;3661;53.288;10.458;2024-01-11T05:10:40;423.50;;;383.90;;
7239;SDS011;3661;53.288;10.458;2024-01-11T05:13:14;431.60;;;391.15;;
7239;SDS011;3661;53.288;10.458;2024-01-11T05:15:46;428.88;;;389.33;;
7239;SDS011;3661;53.288;10.458;2024-01-11T05:18:18;426.48;;;386.35;;
7239;SDS011;3661;53.288;10.458;2024-01-11T05:20:50;416.35;;;376.88;;
7239;SDS011;3661;53.288;10.458;2024-01-11T05:23:22;432.00;;;391.70;;
7239;SDS011;3661;53.288;10.458;2024-01-11T05:25:54;410.33;;;370.35;;
7239;SDS011;3661;53.288;10.458;2024-01-11T05:28:27;412.38;;;372.77;;
7239;SDS011;3661;53.288;10.458;2024-01-11T05:30:59;419.52;;;379.15;;
7239;SDS011;3661;53.288;10.458;2024-01-11T05:33:32;416.45;;;376.85;;
7239;SDS011;3661;53.288;10.458;2024-01-11T05:36:04;429.43;;;389.67;;
7239;SDS011;3661;53.288;10.458;2024-01-11T05:38:37;434.92;;;395.27;;
7239;SDS011;3661;53.288;10.458;2024-01-11T05:41:10;421.70;;;382.17;;
7239;SDS011;3661;53.288;10.458;2024-01-11T05:43:43;423.38;;;382.80;;
7239;SDS011;3661;53.288;10.458;2024-01-11T05:46:15;422.13;;;382.05;;
7239;SDS011;3661;53.288;10.458;2024-01-11T05:48:48;420.55;;;380.67;;
7239;SDS011;3661;53.288;10.458;2024-01-11T05:51:20;427.23;;;386.85;;
7239;SDS011;3661;53.288;10.458;2024-01-11T05:53:52;422.00;;;382.00;;
7239;SDS011;3661;53.288;10.458;2024-01-11T05:56:24;419.27;;;378.95;;
7239;SDS011;3661;53.288;10.458;2024-01-11T05:58:57;427.40;;;387.30;;
7239;SDS011;3661;53.288;10.458;2024-01-11T06:01:30;421.92;;;382.15;;
7239;SDS011;3661;53.288;10.458;2024-01-11T06:04:02;433.10;;;393.05;;
7239;SDS011;3661;53.288;10.458;2024-01-11T06:06:34;421.27;;;381.03;;
7239;SDS011;3661;53.288;10.458;2024-01-11T06:09:06;431.10;;;391.05;;
7239;SDS011;3661;53.288;10.458;2024-01-11T06:11:40;421.70;;;381.83;;
7239;SDS011;3661;53.288;10.458;2024-01-11T06:14:13;429.40;;;389.63;;
7239;SDS011;3661;53.288;10.458;2024-01-11T06:16:45;424.00;;;383.85;;
7239;SDS011;3661;53.288;10.458;2024-01-11T06:19:17;431.58;;;391.45;;
7239;SDS011;3661;53.288;10.458;2024-01-11T06:21:49;423.33;;;383.52;;
7239;SDS011;3661;53.288;10.458;2024-01-11T06:24:21;423.98;;;383.58;;
7239;SDS011;3661;53.288;10.458;2024-01-11T06:26:53;421.33;;;380.70;;
7239;SDS011;3661;53.288;10.458;2024-01-11T06:29:27;422.80;;;382.42;;
7239;SDS011;3661;53.288;10.458;2024-01-11T06:31:59;421.35;;;381.15;;
7239;SDS011;3661;53.288;10.458;2024-01-11T06:34:32;425.88;;;386.13;;
7239;SDS011;3661;53.288;10.458;2024-01-11T06:37:05;424.52;;;383.80;;
7239;SDS011;3661;53.288;10.458;2024-01-11T06:39:37;420.30;;;379.77;;
7239;SDS011;3661;53.288;10.458;2024-01-11T06:42:09;441.10;;;400.23;;
7239;SDS011;3661;53.288;10.458;2024-01-11T06:44:43;445.17;;;404.60;;
7239;SDS011;3661;53.288;10.458;2024-01-11T06:47:15;424.95;;;385.33;;
7239;SDS011;3661;53.288;10.458;2024-01-11T06:49:47;420.73;;;380.80;;
7239;SDS011;3661;53.288;10.458;2024-01-11T06:52:22;417.15;;;376.92;;
7239;SDS011;3661;53.288;10.458;2024-01-11T06:54:54;432.23;;;391.80;;
7239;SDS011;3661;53.288;10.458;2024-01-11T06:57:26;427.08;;;385.90;;
7239;SDS011;3661;53.288;10.458;2024-01-11T06:59:59;437.20;;;396.85;;
7239;SDS011;3661;53.288;10.458;2024-01-11T07:02:31;435.27;;;395.05;;
7239;SDS011;3661;53.288;10.458;2024-01-11T07:05:03;430.88;;;390.40;;
7239;SDS011;3661;53.288;10.458;2024-01-11T07:07:36;431.58;;;392.55;;
7239;SDS011;3661;53.288;10.458;2024-01-11T07:10:08;417.83;;;378.27;;
7239;SDS011;3661;53.288;10.458;2024-01-11T07:12:40;419.33;;;378.97;;
7239;SDS011;3661;53.288;10.458;2024-01-11T07:15:14;437.15;;;396.55;;
7239;SDS011;3661;53.288;10.458;2024-01-11T07:17:47;437.25;;;396.83;;
7239;SDS011;3661;53.288;10.458;2024-01-11T07:20:19;422.63;;;382.60;;
7239;SDS011;3661;53.288;10.458;2024-01-11T07:22:53;428.87;;;388.63;;
7239;SDS011;3661;53.288;10.458;2024-01-11T07:25:25;436.65;;;395.85;;
7239;SDS011;3661;53.288;10.458;2024-01-11T07:27:57;436.57;;;395.57;;
7239;SDS011;3661;53.288;10.458;2024-01-11T07:30:31;428.20;;;387.73;;
7239;SDS011;3661;53.288;10.458;2024-01-11T07:33:03;419.05;;;378.80;;
7239;SDS011;3661;53.288;10.458;2024-01-11T07:35:35;421.65;;;381.15;;
7239;SDS011;3661;53.288;10.458;2024-01-11T07:38:07;430.73;;;389.73;;
7239;SDS011;3661;53.288;10.458;2024-01-11T07:40:40;429.05;;;387.90;;
7239;SDS011;3661;53.288;10.458;2024-01-11T07:43:12;432.80;;;392.27;;
7239;SDS011;3661;53.288;10.458;2024-01-11T07:45:45;444.83;;;403.67;;
7239;SDS011;3661;53.288;10.458;2024-01-11T07:48:18;443.35;;;402.15;;
7239;SDS011;3661;53.288;10.458;2024-01-11T07:50:51;436.60;;;395.25;;
7239;SDS011;3661;53.288;10.458;2024-01-11T07:53:23;433.63;;;392.65;;
7239;SDS011;3661;53.288;10.458;2024-01-11T07:55:55;450.27;;;408.88;;
7239;SDS011;3661;53.288;10.458;2024-01-11T07:58:28;423.63;;;382.42;;
7239;SDS011;3661;53.288;10.458;2024-01-11T08:01:02;440.20;;;398.55;;
7239;SDS011;3661;53.288;10.458;2024-01-11T08:03:34;450.52;;;408.45;;
7239;SDS011;3661;53.288;10.458;2024-01-11T08:06:06;437.40;;;396.80;;
7239;SDS011;3661;53.288;10.458;2024-01-11T08:08:39;441.55;;;399.63;;
7239;SDS011;3661;53.288;10.458;2024-01-11T08:11:11;435.07;;;393.53;;
7239;SDS011;3661;53.288;10.458;2024-01-11T08:13:43;445.95;;;404.55;;
7239;SDS011;3661;53.288;10.458;2024-01-11T08:16:17;440.33;;;398.55;;
7239;SDS011;3661;53.288;10.458;2024-01-11T08:18:49;442.77;;;401.45;;
7239;SDS011;3661;53.288;10.458;2024-01-11T08:21:23;439.05;;;396.92;;
7239;SDS011;3661;53.288;10.458;2024-01-11T08:23:55;452.08;;;409.98;;
7239;SDS011;3661;53.288;10.458;2024-01-11T08:26:27;441.83;;;399.93;;
7239;SDS011;3661;53.288;10.458;2024-01-11T08:29:01;438.85;;;397.27;;
7239;SDS011;3661;53.288;10.458;2024-01-11T08:31:36;445.92;;;404.48;;
7239;SDS011;3661;53.288;10.458;2024-01-11T08:34:08;445.83;;;403.73;;
7239;SDS011;3661;53.288;10.458;2024-01-11T08:36:40;441.13;;;399.63;;
7239;SDS011;3661;53.288;10.458;2024-01-11T08:39:12;452.42;;;410.95;;
7239;SDS011;3661;53.288;10.458;2024-01-11T08:41:44;444.75;;;402.75;;
7239;SDS011;3661;53.288;10.458;2024-01-11T08:44:16;456.63;;;414.25;;
7239;SDS011;3661;53.288;10.458;2024-01-11T08:50:16;445.80;;;404.13;;
7239;SDS011;3661;53.288;10.458;2024-01-11T08:56:17;454.42;;;412.10;;
7239;SDS011;3661;53.288;10.458;2024-01-11T09:02:16;444.70;;;402.55;;
7239;SDS011;3661;53.288;10.458;2024-01-11T09:08:16;455.90;;;413.58;;
7239;SDS011;3661;53.288;10.458;2024-01-11T09:14:15;458.43;;;416.70;;
7239;SDS011;3661;53.288;10.458;2024-01-11T09:20:15;460.73;;;417.70;;
7239;SDS011;3661;53.288;10.458;2024-01-11T09:26:17;463.83;;;420.00;;
7239;SDS011;3661;53.288;10.458;2024-01-11T09:35:49;462.13;;;418.25;;
7239;SDS011;3661;53.288;10.458;2024-01-11T09:41:51;473.05;;;429.00;;
7239;SDS011;3661;53.288;10.458;2024-01-11T09:47:55;457.20;;;414.92;;
7239;SDS011;3661;53.288;10.458;2024-01-11T09:53:54;465.90;;;422.15;;
7239;SDS011;3661;53.288;10.458;2024-01-11T09:59:56;469.97;;;425.90;;
7239;SDS011;3661;53.288;10.458;2024-01-11T10:05:57;489.70;;;445.70;;
7239;SDS011;3661;53.288;10.458;2024-01-11T10:11:56;470.60;;;426.27;;
7239;SDS011;3661;53.288;10.458;2024-01-11T10:17:57;466.00;;;422.50;;
7239;SDS011;3661;53.288;10.458;2024-01-11T10:23:57;482.80;;;438.13;;
7239;SDS011;3661;53.288;10.458;2024-01-11T10:29:57;488.92;;;443.80;;
7239;SDS011;3661;53.288;10.458;2024-01-11T10:40:04;480.77;;;436.38;;
7239;SDS011;3661;53.288;10.458;2024-01-11T10:46:09;483.40;;;438.35;;
7239;SDS011;3661;53.288;10.458;2024-01-11T10:52:11;501.50;;;456.07;;
7239;SDS011;3661;53.288;10.458;2024-01-11T10:58:14;496.63;;;450.90;;
7239;SDS011;3661;53.288;10.458;2024-01-11T11:04:15;491.10;;;445.93;;
7239;SDS011;3661;53.288;10.458;2024-01-11T11:10:15;483.23;;;438.85;;
7239;SDS011;3661;53.288;10.458;2024-01-11T11:19:43;510.50;;;464.27;;
7239;SDS011;3661;53.288;10.458;2024-01-11T11:32:18;495.77;;;450.35;;
7239;SDS011;3661;53.288;10.458;2024-01-11T11:42:40;496.10;;;450.15;;
7239;SDS011;3661;53.288;10.458;2024-01-11T11:48:49;516.67;;;470.33;;
7239;SDS011;3661;53.288;10.458;2024-01-11T11:55:07;511.17;;;464.90;;
7239;SDS011;3661;53.288;10.458;2024-01-11T12:01:08;530.65;;;483.48;;
7239;SDS011;3661;53.288;10.458;2024-01-11T12:07:08;519.22;;;471.80;;
7239;SDS011;3661;53.288;10.458;2024-01-11T12:13:07;521.03;;;473.77;;
7239;SDS011;3661;53.288;10.458;2024-01-11T12:19:07;522.45;;;475.25;;
7239;SDS011;3661;53.288;10.458;2024-01-11T12:25:43;541.20;;;493.70;;
7239;SDS011;3661;53.288;10.458;2024-01-11T12:31:41;547.72;;;499.27;;
7239;SDS011;3661;53.288;10.458;2024-01-11T12:56:33;535.03;;;486.63;;
7239;SDS011;3661;53.288;10.458;2024-01-11T13:02:32;545.03;;;496.63;;
7239;SDS011;3661;53.288;10.458;2024-01-11T13:08:33;554.70;;;507.15;;
7239;SDS011;3661;53.288;10.458;2024-01-11T13:14:34;547.33;;;499.53;;
7239;SDS011;3661;53.288;10.458;2024-01-11T13:20:36;557.65;;;509.92;;
7239;SDS011;3661;53.288;10.458;2024-01-11T13:26:35;570.33;;;522.38;;
7239;SDS011;3661;53.288;10.458;2024-01-11T13:32:36;565.57;;;517.83;;
7239;SDS011;3661;53.288;10.458;2024-01-11T13:38:35;573.50;;;525.80;;
7239;SDS011;3661;53.288;10.458;2024-01-11T13:44:34;578.05;;;529.50;;
7239;SDS011;3661;53.288;10.458;2024-01-11T13:50:35;577.00;;;529.30;;
7239;SDS011;3661;53.288;10.458;2024-01-11T13:56:34;587.83;;;540.08;;
7239;SDS011;3661;53.288;10.458;2024-01-11T14:02:33;585.33;;;537.03;;
7239;SDS011;3661;53.288;10.458;2024-01-11T14:08:33;561.22;;;513.78;;
7239;SDS011;3661;53.288;10.458;2024-01-11T14:14:33;591.63;;;543.13;;
7239;SDS011;3661;53.288;10.458;2024-01-11T14:20:31;578.10;;;530.08;;
7239;SDS011;3661;53.288;10.458;2024-01-11T14:30:00;574.05;;;525.55;;
7239;SDS011;3661;53.288;10.458;2024-01-11T14:36:02;576.63;;;528.33;;
7239;SDS011;3661;53.288;10.458;2024-01-11T14:42:01;585.03;;;535.80;;
7239;SDS011;3661;53.288;10.458;2024-01-11T14:55:23;569.20;;;520.67;;
7239;SDS011;3661;53.288;10.458;2024-01-11T15:01:21;582.97;;;533.45;;
7239;SDS011;3661;53.288;10.458;2024-01-11T15:07:20;600.22;;;550.72;;
7239;SDS011;3661;53.288;10.458;2024-01-11T15:13:19;589.63;;;540.13;;
7239;SDS011;3661;53.288;10.458;2024-01-11T15:19:19;603.47;;;554.10;;
7239;SDS011;3661;53.288;10.458;2024-01-11T15:25:18;599.88;;;550.00;;
7239;SDS011;3661;53.288;10.458;2024-01-11T15:31:18;569.58;;;520.72;;
7239;SDS011;3661;53.288;10.458;2024-01-11T15:37:18;592.42;;;543.35;;
7239;SDS011;3661;53.288;10.458;2024-01-11T15:43:18;567.55;;;518.50;;
7239;SDS011;3661;53.288;10.458;2024-01-11T15:49:18;595.13;;;545.80;;
7239;SDS011;3661;53.288;10.458;2024-01-11T15:59:23;594.45;;;545.55;;
7239;SDS011;3661;53.288;10.458;2024-01-11T16:06:12;576.67;;;527.28;;
7239;SDS011;3661;53.288;10.458;2024-01-11T16:12:11;586.25;;;537.15;;
7239;SDS011;3661;53.288;10.458;2024-01-11T16:18:10;602.40;;;552.67;;
7239;SDS011;3661;53.288;10.458;2024-01-11T16:24:11;588.58;;;538.85;;
7239;SDS011;3661;53.288;10.458;2024-01-11T16:30:11;590.90;;;541.10;;
7239;SDS011;3661;53.288;10.458;2024-01-11T16:36:09;577.13;;;528.07;;
7239;SDS011;3661;53.288;10.458;2024-01-11T16:42:22;598.95;;;549.83;;
7239;SDS011;3661;53.288;10.458;2024-01-11T16:48:22;606.92;;;557.22;;
7239;SDS011;3661;53.288;10.458;2024-01-11T16:54:21;580.58;;;531.17;;
7239;SDS011;3661;53.288;10.458;2024-01-11T16:56:53;596.53;;;546.90;;
7239;SDS011;3661;53.288;10.458;2024-01-11T16:59:26;588.85;;;539.38;;
7239;SDS011;3661;53.288;10.458;2024-01-11T17:01:58;586.70;;;537.50;;
7239;SDS011;3661;53.288;10.458;2024-01-11T17:04:30;588.40;;;539.05;;
7239;SDS011;3661;53.288;10.458;2024-01-11T17:07:02;587.55;;;538.35;;
7239;SDS011;3661;53.288;10.458;2024-01-11T17:09:35;587.35;;;538.35;;
7239;SDS011;3661;53.288;10.458;2024-01-11T17:12:07;588.72;;;539.65;;
7239;SDS011;3661;53.288;10.458;2024-01-11T17:14:41;615.13;;;564.40;;
7239;SDS011;3661;53.288;10.458;2024-01-11T17:17:13;602.88;;;553.28;;
7239;SDS011;3661;53.288;10.458;2024-01-11T17:19:45;576.13;;;526.73;;
7239;SDS011;3661;53.288;10.458;2024-01-11T17:22:17;609.00;;;559.13;;
7239;SDS011;3661;53.288;10.458;2024-01-11T17:24:49;586.20;;;537.70;;
7239;SDS011;3661;53.288;10.458;2024-01-11T17:27:22;583.10;;;533.30;;
7239;SDS011;3661;53.288;10.458;2024-01-11T17:29:55;596.83;;;547.42;;
7239;SDS011;3661;53.288;10.458;2024-01-11T17:32:27;593.20;;;543.85;;
7239;SDS011;3661;53.288;10.458;2024-01-11T17:34:59;586.50;;;537.25;;
7239;SDS011;3661;53.288;10.458;2024-01-11T17:37:31;586.00;;;536.80;;
7239;SDS011;3661;53.288;10.458;2024-01-11T17:40:04;584.97;;;535.80;;
7239;SDS011;3661;53.288;10.458;2024-01-11T17:42:36;610.70;;;561.30;;
7239;SDS011;3661;53.288;10.458;2024-01-11T17:45:10;603.28;;;554.00;;
7239;SDS011;3661;53.288;10.458;2024-01-11T17:47:42;592.38;;;543.30;;
7239;SDS011;3661;53.288;10.458;2024-01-11T17:50:14;592.47;;;542.90;;
7239;SDS011;3661;53.288;10.458;2024-01-11T17:52:46;580.75;;;531.75;;
7239;SDS011;3661;53.288;10.458;2024-01-11T17:55:18;596.47;;;547.60;;
7239;SDS011;3661;53.288;10.458;2024-01-11T17:57:51;592.03;;;543.15;;
7239;SDS011;3661;53.288;10.458;2024-01-11T18:00:24;583.90;;;535.00;;
7239;SDS011;3661;53.288;10.458;2024-01-11T18:03:01;601.80;;;552.20;;
7239;SDS011;3661;53.288;10.458;2024-01-11T18:05:34;602.28;;;553.05;;
7239;SDS011;3661;53.288;10.458;2024-01-11T18:08:07;590.27;;;540.97;;
7239;SDS011;3661;53.288;10.458;2024-01-11T18:10:40;595.33;;;545.80;;
7239;SDS011;3661;53.288;10.458;2024-01-11T18:13:12;570.95;;;522.13;;
7239;SDS011;3661;53.288;10.458;2024-01-11T18:15:57;598.47;;;548.67;;
7239;SDS011;3661;53.288;10.458;2024-01-11T18:18:29;573.60;;;524.88;;
7239;SDS011;3661;53.288;10.458;2024-01-11T18:21:01;587.15;;;537.70;;
7239;SDS011;3661;53.288;10.458;2024-01-11T18:23:33;582.65;;;533.72;;
7239;SDS011;3661;53.288;10.458;2024-01-11T18:26:06;582.40;;;533.60;;
7239;SDS011;3661;53.288;10.458;2024-01-11T18:28:38;577.75;;;528.85;;
7239;SDS011;3661;53.288;10.458;2024-01-11T18:31:17;600.95;;;551.35;;
7239;SDS011;3661;53.288;10.458;2024-01-11T18:33:49;573.85;;;525.05;;
7239;SDS011;3661;53.288;10.458;2024-01-11T18:36:22;590.83;;;541.92;;
7239;SDS011;3661;53.288;10.458;2024-01-11T18:38:54;590.38;;;541.35;;
7239;SDS011;3661;53.288;10.458;2024-01-11T18:41:28;575.50;;;526.97;;
7239;SDS011;3661;53.288;10.458;2024-01-11T18:44:00;584.58;;;535.55;;
7239;SDS011;3661;53.288;10.458;2024-01-11T18:46:38;574.50;;;525.30;;
7239;SDS011;3661;53.288;10.458;2024-01-11T18:49:21;579.55;;;530.38;;
7239;SDS011;3661;53.288;10.458;2024-01-11T18:52:25;578.50;;;529.83;;
7239;SDS011;3661;53.288;10.458;2024-01-11T18:55:08;554.20;;;505.85;;
7239;SDS011;3661;53.288;10.458;2024-01-11T18:57:40;577.15;;;528.35;;
7239;SDS011;3661;53.288;10.458;2024-01-11T19:00:13;572.13;;;523.53;;
7239;SDS011;3661;53.288;10.458;2024-01-11T19:02:47;578.72;;;530.22;;
7239;SDS011;3661;53.288;10.458;2024-01-11T19:05:20;577.03;;;528.65;;
7239;SDS011;3661;53.288;10.458;2024-01-11T19:07:53;553.20;;;505.33;;
7239;SDS011;3661;53.288;10.458;2024-01-11T19:10:25;565.55;;;517.67;;
7239;SDS011;3661;53.288;10.458;2024-01-11T19:12:57;569.40;;;521.30;;
7239;SDS011;3661;53.288;10.458;2024-01-11T19:15:29;551.30;;;503.50;;
7239;SDS011;3661;53.288;10.458;2024-01-11T19:18:05;566.97;;;519.38;;
7239;SDS011;3661;53.288;10.458;2024-01-11T19:20:39;559.87;;;511.70;;
7239;SDS011;3661;53.288;10.458;2024-01-11T19:23:11;558.78;;;510.45;;
7239;SDS011;3661;53.288;10.458;2024-01-11T19:25:43;561.55;;;513.08;;
7239;SDS011;3661;53.288;10.458;2024-01-11T19:28:15;554.75;;;506.58;;
7239;SDS011;3661;53.288;10.458;2024-01-11T19:30:47;566.55;;;518.00;;
7239;SDS011;3661;53.288;10.458;2024-01-11T19:33:22;541.92;;;494.60;;
7239;SDS011;3661;53.288;10.458;2024-01-11T19:35:54;559.20;;;511.10;;
7239;SDS011;3661;53.288;10.458;2024-01-11T19:38:27;552.72;;;505.00;;
7239;SDS011;3661;53.288;10.458;2024-01-11T19:40:59;549.97;;;502.02;;
7239;SDS011;3661;53.288;10.458;2024-01-11T19:43:31;551.27;;;503.50;;
7239;SDS011;3661;53.288;10.458;2024-01-11T19:46:05;550.83;;;502.60;;
7239;SDS011;3661;53.288;10.458;2024-01-11T19:48:39;553.45;;;505.75;;